sensor_id;sensor_type;location;lat;lon;timestamp;pressure;altitude;pressure_sealevel;temperature;humidity
58875;BME280;44652;49.040;12.126;2023-11-22T00:01:06;97751.88;;;3.54;100.00
58875;BME280;44652;49.040;12.126;2023-11-22T00:03:33;97747.28;;;3.33;100.00
58875;BME280;44652;49.040;12.126;2023-11-22T00:06:00;97760.09;;;3.45;100.00
58875;BME280;44652;49.040;12.126;2023-11-22T00:08:28;97776.03;;;3.51;100.00
58875;BME280;44652;49.040;12.126;2023-11-22T00:10:56;97772.13;;;3.43;100.00
58875;BME280;44652;49.040;12.126;2023-11-22T00:13:22;97765.66;;;3.36;100.00
58875;BME280;44652;49.040;12.126;2023-11-22T00:15:50;97744.19;;;3.26;100.00
58875;BME280;44652;49.040;12.126;2023-11-22T00:18:19;97751.56;;;3.33;100.00
58875;BME280;44652;49.040;12.126;2023-11-22T00:20:46;97769.53;;;3.28;100.00
58875;BME280;44652;49.040;12.126;2023-11-22T20:05:30;98629.47;;;2.37;81.83
58875;BME280;44652;49.040;12.126;2023-11-22T20:07:57;98648.81;;;2.53;81.63
58875;BME280;44652;49.040;12.126;2023-11-22T20:10:25;98657.09;;;2.59;81.73
58875;BME280;44652;49.040;12.126;2023-11-22T20:12:53;98636.16;;;2.46;80.83
58875;BME280;44652;49.040;12.126;2023-11-22T20:15:20;98644.19;;;2.49;82.55
58875;BME280;44652;49.040;12.126;2023-11-22T20:17:47;98635.72;;;2.51;82.50
58875;BME280;44652;49.040;12.126;2023-11-22T20:20:14;98643.84;;;2.56;82.11
58875;BME280;44652;49.040;12.126;2023-11-22T20:22:41;98618.41;;;2.40;80.76
58875;BME280;44652;49.040;12.126;2023-11-22T20:25:08;98639.53;;;2.33;82.72
58875;BME280;44652;49.040;12.126;2023-11-22T20:27:35;98650.63;;;2.42;84.04
58875;BME280;44652;49.040;12.126;2023-11-22T20:30:02;98633.88;;;2.38;83.48
58875;BME280;44652;49.040;12.126;2023-11-22T20:32:29;98623.84;;;2.43;83.34
58875;BME280;44652;49.040;12.126;2023-11-22T20:34:56;98636.72;;;2.41;83.98
58875;BME280;44652;49.040;12.126;2023-11-22T20:37:23;98603.13;;;2.33;83.01
58875;BME280;44652;49.040;12.126;2023-11-22T20:39:50;98599.41;;;2.29;82.24
58875;BME280;44652;49.040;12.126;2023-11-22T20:42:17;98625.06;;;2.48;81.33
58875;BME280;44652;49.040;12.126;2023-11-22T20:44:44;98620.34;;;2.42;82.67
58875;BME280;44652;49.040;12.126;2023-11-22T20:47:11;98622.69;;;2.39;82.95
58875;BME280;44652;49.040;12.126;2023-11-22T20:49:38;98631.84;;;2.34;83.74
58875;BME280;44652;49.040;12.126;2023-11-22T20:52:05;98625.97;;;2.37;83.84
58875;BME280;44652;49.040;12.126;2023-11-22T20:54:31;98609.00;;;2.30;83.80
58875;BME280;44652;49.040;12.126;2023-11-22T20:56:58;98629.13;;;2.33;85.76
58875;BME280;44652;49.040;12.126;2023-11-22T20:59:27;98626.88;;;2.37;84.55
58875;BME280;44652;49.040;12.126;2023-11-22T21:01:54;98615.34;;;2.34;85.25
58875;BME280;44652;49.040;12.126;2023-11-22T21:04:21;98621.91;;;2.29;84.19
58875;BME280;44652;49.040;12.126;2023-11-22T21:06:48;98620.53;;;2.34;84.85
58875;BME280;44652;49.040;12.126;2023-11-22T21:09:15;98644.66;;;2.31;86.26
58875;BME280;44652;49.040;12.126;2023-11-22T21:11:41;98635.72;;;2.28;85.94
58875;BME280;44652;49.040;12.126;2023-11-22T21:14:12;98623.13;;;2.10;86.46
58875;BME280;44652;49.040;12.126;2023-11-22T21:16:43;98615.34;;;2.22;85.35
58875;BME280;44652;49.040;12.126;2023-11-22T21:19:10;98646.13;;;2.51;85.14
58875;BME280;44652;49.040;12.126;2023-11-22T21:21:40;98613.97;;;2.15;85.41
58875;BME280;44652;49.040;12.126;2023-11-22T21:24:07;98611.72;;;2.20;86.47
58875;BME280;44652;49.040;12.126;2023-11-22T21:26:34;98612.34;;;1.82;87.99
58875;BME280;44652;49.040;12.126;2023-11-22T21:29:01;98630.25;;;1.56;88.87
58875;BME280;44652;49.040;12.126;2023-11-22T21:31:27;98606.28;;;1.93;88.04
58875;BME280;44652;49.040;12.126;2023-11-22T21:33:55;98596.06;;;1.85;89.09
58875;BME280;44652;49.040;12.126;2023-11-22T21:36:22;98617.94;;;2.22;87.82
58875;BME280;44652;49.040;12.126;2023-11-22T21:38:49;98575.44;;;2.10;87.45
58875;BME280;44652;49.040;12.126;2023-11-22T21:41:16;98609.47;;;2.13;88.76
58875;BME280;44652;49.040;12.126;2023-11-22T21:43:42;98571.91;;;1.86;88.73
58875;BME280;44652;49.040;12.126;2023-11-22T21:46:16;98592.03;;;2.12;87.47
58875;BME280;44652;49.040;12.126;2023-11-22T21:48:43;98606.63;;;2.10;89.10
58875;BME280;44652;49.040;12.126;2023-11-22T21:51:10;98597.69;;;2.18;89.41
58875;BME280;44652;49.040;12.126;2023-11-22T21:53:39;98566.25;;;2.03;88.46
58875;BME280;44652;49.040;12.126;2023-11-22T21:56:07;98573.28;;;2.16;88.45
58875;BME280;44652;49.040;12.126;2023-11-22T21:58:35;98589.91;;;2.18;89.01
58875;BME280;44652;49.040;12.126;2023-11-22T22:01:01;98565.81;;;2.09;89.52
58875;BME280;44652;49.040;12.126;2023-11-22T22:03:28;98565.69;;;1.95;89.90
58875;BME280;44652;49.040;12.126;2023-11-22T22:05:55;98563.78;;;2.05;89.62
58875;BME280;44652;49.040;12.126;2023-11-22T22:08:22;98595.44;;;2.11;90.84
58875;BME280;44652;49.040;12.126;2023-11-22T22:10:49;98602.91;;;2.18;90.32
58875;BME280;44652;49.040;12.126;2023-11-22T22:13:16;98594.19;;;2.29;90.39
58875;BME280;44652;49.040;12.126;2023-11-22T22:15:44;98601.09;;;2.29;89.28
58875;BME280;44652;49.040;12.126;2023-11-22T22:18:11;98580.38;;;2.07;90.18
58875;BME280;44652;49.040;12.126;2023-11-22T22:20:38;98604.03;;;2.10;91.10
58875;BME280;44652;49.040;12.126;2023-11-22T22:23:16;98606.63;;;2.22;90.55
58875;BME280;44652;49.040;12.126;2023-11-22T22:25:43;98581.19;;;1.94;91.25
58875;BME280;44652;49.040;12.126;2023-11-22T22:28:10;98575.84;;;2.04;91.20
58875;BME280;44652;49.040;12.126;2023-11-22T22:30:37;98587.75;;;2.12;91.14
58875;BME280;44652;49.040;12.126;2023-11-22T22:33:04;98589.44;;;2.12;91.75
58875;BME280;44652;49.040;12.126;2023-11-22T22:35:31;98589.31;;;2.10;92.19
